createdAt,value
2022-11-29T00:01:06.598Z,94.74
2022-11-29T00:03:34.609Z,94.70
2022-11-29T00:06:08.178Z,94.81
2022-11-29T00:08:36.071Z,95.01
2022-11-29T00:11:07.241Z,95.31
2022-11-29T00:13:33.712Z,95.59
2022-11-29T00:16:12.400Z,95.53
2022-11-29T00:18:38.757Z,95.13
2022-11-29T00:21:08.706Z,94.42
2022-11-29T00:23:36.227Z,94.43
2022-11-29T00:26:07.138Z,94.44
2022-11-29T00:28:34.876Z,94.56
2022-11-29T00:31:12.413Z,95.20
2022-11-29T00:33:38.768Z,94.75
2022-11-29T00:36:05.326Z,95.35
2022-11-29T00:38:31.979Z,94.94
2022-11-29T00:40:58.329Z,94.92
2022-11-29T00:43:24.643Z,95.00
2022-11-29T00:45:51.471Z,95.06
2022-11-29T00:48:17.850Z,94.91
2022-11-29T00:50:44.222Z,94.84
2022-11-29T00:53:11.046Z,95.03
2022-11-29T00:55:37.367Z,94.91
2022-11-29T00:58:03.831Z,94.84
2022-11-29T01:00:30.514Z,95.12
2022-11-29T01:02:56.822Z,95.18
2022-11-29T01:05:23.250Z,95.28
2022-11-29T01:07:50.164Z,95.93
2022-11-29T01:10:16.941Z,95.63
2022-11-29T01:12:43.267Z,95.70
2022-11-29T01:15:10.909Z,95.63
2022-11-29T01:17:38.787Z,95.44
2022-11-29T01:20:07.642Z,95.37
2022-11-29T01:22:35.405Z,95.83
2022-11-29T01:25:01.822Z,95.42
2022-11-29T01:27:29.362Z,95.20
2022-11-29T01:29:56.306Z,95.42
2022-11-29T01:32:22.678Z,95.65
2022-11-29T01:34:49.051Z,95.50
2022-11-29T01:37:15.889Z,95.34
2022-11-29T01:39:42.545Z,95.38
2022-11-29T01:42:12.720Z,95.26
2022-11-29T01:44:39.537Z,95.12
2022-11-29T01:47:05.885Z,95.42
2022-11-29T01:49:37.428Z,94.91
2022-11-29T01:52:11.793Z,95.12
2022-11-29T01:54:47.127Z,95.40
2022-11-29T01:57:14.115Z,95.21
2022-11-29T01:59:48.053Z,95.07
2022-11-29T02:02:22.598Z,94.96
2022-11-29T02:04:49.817Z,95.27
2022-11-29T02:07:16.978Z,94.96
2022-11-29T02:09:43.712Z,95.40
2022-11-29T02:12:19.149Z,95.66
2022-11-29T02:14:58.077Z,95.79
2022-11-29T02:17:33.432Z,95.08
2022-11-29T02:20:28.534Z,95.45
2022-11-29T02:23:19.592Z,95.16
2022-11-29T02:26:02.622Z,94.84
2022-11-29T02:28:49.282Z,94.86
2022-11-29T02:31:54.549Z,95.06
2022-11-29T02:34:57.907Z,95.18
2022-11-29T02:37:58.996Z,95.02
2022-11-29T02:40:51.466Z,94.97
2022-11-29T02:43:51.408Z,95.34
2022-11-29T02:46:59.497Z,95.21
2022-11-29T02:49:44.142Z,95.68
2022-11-29T02:52:25.693Z,95.41
2022-11-29T02:55:04.436Z,95.54
2022-11-29T02:57:43.633Z,95.53
2022-11-29T03:00:15.220Z,95.59
2022-11-29T03:03:02.238Z,95.58
2022-11-29T03:05:37.502Z,95.03
2022-11-29T03:08:31.210Z,95.53
2022-11-29T03:11:07.325Z,96.35
2022-11-29T03:13:53.099Z,95.54
2022-11-29T03:16:44.902Z,95.44
2022-11-29T03:19:30.046Z,95.89
2022-11-29T03:22:04.334Z,95.71
2022-11-29T03:24:51.074Z,95.97
2022-11-29T03:27:28.246Z,95.64
2022-11-29T03:30:02.684Z,95.82
2022-11-29T03:32:39.061Z,95.85
2022-11-29T03:35:30.108Z,95.48
2022-11-29T03:38:24.046Z,95.89
2022-11-29T03:40:57.638Z,95.52
2022-11-29T03:43:35.001Z,96.18
2022-11-29T03:46:10.595Z,95.74
2022-11-29T03:48:44.676Z,95.98
2022-11-29T03:51:21.707Z,95.97
2022-11-29T03:53:57.698Z,95.81
2022-11-29T03:56:35.437Z,95.65
2022-11-29T03:59:10.628Z,95.51
2022-11-29T04:01:55.504Z,95.69
2022-11-29T04:04:45.805Z,95.91
2022-11-29T04:07:24.667Z,96.19
2022-11-29T04:10:20.944Z,96.10
2022-11-29T04:13:25.555Z,96.04
2022-11-29T04:16:10.733Z,95.95
2022-11-29T04:19:11.335Z,95.75
2022-11-29T04:21:43.629Z,95.55
2022-11-29T04:24:29.118Z,95.93
2022-11-29T04:27:19.062Z,95.98
2022-11-29T04:29:51.930Z,95.66
2022-11-29T04:32:25.306Z,96.02
2022-11-29T04:35:16.945Z,95.86
2022-11-29T04:38:17.775Z,95.82
2022-11-29T04:40:56.694Z,95.85
2022-11-29T04:43:32.181Z,96.41
2022-11-29T04:46:11.478Z,95.96
2022-11-29T04:48:59.915Z,96.18
2022-11-29T04:51:43.758Z,95.56
2022-11-29T04:54:39.915Z,95.90
2022-11-29T04:57:18.726Z,95.51
2022-11-29T04:59:53.694Z,95.58
2022-11-29T05:02:28.871Z,95.54
2022-11-29T05:05:18.499Z,95.56
2022-11-29T05:07:52.749Z,96.05
2022-11-29T05:10:39.544Z,95.89
2022-11-29T05:13:37.881Z,95.83
2022-11-29T05:16:15.781Z,95.99
2022-11-29T05:18:57.313Z,95.85
2022-11-29T05:21:47.459Z,96.03
2022-11-29T05:24:51.364Z,96.02
2022-11-29T05:27:46.226Z,96.15
2022-11-29T05:30:19.466Z,96.15
2022-11-29T05:33:05.548Z,96.15
2022-11-29T05:35:52.959Z,96.10
2022-11-29T05:38:50.231Z,96.43
2022-11-29T05:41:24.071Z,95.76
2022-11-29T05:44:07.901Z,96.10
2022-11-29T05:46:48.450Z,96.44
2022-11-29T05:49:34.057Z,96.19
2022-11-29T05:52:14.056Z,96.37
2022-11-29T05:54:47.076Z,96.45
2022-11-29T05:57:47.985Z,96.38
2022-11-29T06:00:17.190Z,96.58
2022-11-29T06:03:06.482Z,96.36
2022-11-29T06:05:51.647Z,96.50
2022-11-29T06:08:46.762Z,95.96
2022-11-29T06:11:28.090Z,95.88
2022-11-29T06:14:36.497Z,96.06
2022-11-29T06:17:25.745Z,95.89
2022-11-29T06:20:17.150Z,95.77
2022-11-29T06:22:57.962Z,95.84
2022-11-29T06:25:34.207Z,96.00
2022-11-29T06:28:25.281Z,96.10
2022-11-29T06:31:03.632Z,96.32
2022-11-29T06:33:58.410Z,96.20
2022-11-29T06:36:48.885Z,95.82
2022-11-29T06:39:15.422Z,96.25
2022-11-29T06:41:42.099Z,95.99
2022-11-29T06:44:10.057Z,96.16
2022-11-29T06:46:49.139Z,96.07
2022-11-29T06:49:25.127Z,95.49
2022-11-29T06:52:13.584Z,95.49
2022-11-29T06:55:11.109Z,95.75
2022-11-29T06:58:06.398Z,96.21
2022-11-29T07:01:02.737Z,95.60
2022-11-29T07:03:54.799Z,95.67
2022-11-29T07:06:25.299Z,95.81
2022-11-29T07:08:56.055Z,95.55
2022-11-29T07:11:22.718Z,95.71
2022-11-29T07:13:50.020Z,95.97
2022-11-29T07:16:25.650Z,96.36
2022-11-29T07:19:18.998Z,95.69
2022-11-29T07:21:58.530Z,95.46
2022-11-29T07:24:35.294Z,95.52
2022-11-29T07:27:20.288Z,95.56
2022-11-29T07:29:56.343Z,95.53
2022-11-29T07:32:38.257Z,96.04
2022-11-29T07:35:12.370Z,95.77
2022-11-29T07:38:01.461Z,95.27
2022-11-29T07:40:52.218Z,96.23
2022-11-29T07:43:48.858Z,95.83
2022-11-29T07:46:15.661Z,96.05
2022-11-29T07:48:42.302Z,95.71
2022-11-29T07:51:09.181Z,95.70
2022-11-29T07:53:41.078Z,95.31
2022-11-29T07:56:09.365Z,95.38
2022-11-29T07:58:36.323Z,95.94
2022-11-29T08:01:03.762Z,95.98
2022-11-29T08:03:31.249Z,95.80
2022-11-29T08:05:57.627Z,95.35
2022-11-29T08:08:23.924Z,95.50
2022-11-29T08:10:50.641Z,95.85
2022-11-29T08:13:20.228Z,95.47
2022-11-29T08:15:47.990Z,94.97
2022-11-29T08:18:16.037Z,95.17
2022-11-29T08:20:42.941Z,95.56
2022-11-29T08:23:11.134Z,95.33
2022-11-29T08:25:37.946Z,95.01
2022-11-29T08:28:05.339Z,95.14
2022-11-29T08:30:31.759Z,95.18
2022-11-29T08:32:58.597Z,95.59
2022-11-29T08:35:25.190Z,95.24
2022-11-29T08:37:51.940Z,95.04
2022-11-29T08:40:18.365Z,94.82
2022-11-29T08:42:44.724Z,94.82
2022-11-29T08:45:12.169Z,94.67
2022-11-29T08:47:39.096Z,94.68
2022-11-29T08:50:12.540Z,94.64
2022-11-29T08:53:00.397Z,94.78
2022-11-29T08:55:31.180Z,94.37
2022-11-29T08:58:03.509Z,94.31
2022-11-29T09:00:30.458Z,94.75
2022-11-29T09:03:17.218Z,94.09
2022-11-29T09:05:43.815Z,93.96
2022-11-29T09:08:10.239Z,93.54
2022-11-29T09:10:38.765Z,94.26
2022-11-29T09:13:05.482Z,93.80
2022-11-29T09:15:31.806Z,93.34
2022-11-29T09:17:58.577Z,93.71
2022-11-29T09:20:25.834Z,93.34
2022-11-29T09:22:52.429Z,93.02
2022-11-29T09:25:18.773Z,92.41
2022-11-29T09:27:45.597Z,93.23
2022-11-29T09:30:12.266Z,92.28
2022-11-29T09:32:38.597Z,92.87
2022-11-29T09:35:05.328Z,92.69
2022-11-29T09:37:31.639Z,93.38
2022-11-29T09:39:57.960Z,93.00
2022-11-29T09:42:42.309Z,92.84
2022-11-29T09:45:19.506Z,93.46
2022-11-29T09:48:09.165Z,93.16
2022-11-29T09:50:46.223Z,92.54
2022-11-29T09:53:56.131Z,92.96
2022-11-29T09:56:30.614Z,93.43
2022-11-29T09:59:02.154Z,94.07
2022-11-29T10:01:34.098Z,93.62
2022-11-29T10:04:05.063Z,93.62
2022-11-29T10:06:38.729Z,92.79
2022-11-29T10:09:33.732Z,93.20
2022-11-29T10:12:07.285Z,92.80
2022-11-29T10:14:46.546Z,93.62
2022-11-29T10:17:23.734Z,93.18
2022-11-29T10:19:57.585Z,93.83
2022-11-29T10:22:44.854Z,93.92
2022-11-29T10:25:21.945Z,92.60
2022-11-29T10:27:48.309Z,93.46
2022-11-29T10:30:16.144Z,93.53
2022-11-29T10:32:45.780Z,93.05
2022-11-29T10:35:17.610Z,92.35
2022-11-29T10:38:01.404Z,92.40
2022-11-29T10:40:35.998Z,92.79
2022-11-29T10:43:02.974Z,91.44
2022-11-29T10:45:39.194Z,92.59
2022-11-29T10:48:15.709Z,92.02
2022-11-29T10:50:52.010Z,93.00
2022-11-29T10:53:26.829Z,92.56
2022-11-29T10:55:53.892Z,92.27
2022-11-29T10:58:28.487Z,91.97
2022-11-29T11:01:02.697Z,93.25
2022-11-29T11:03:55.322Z,92.85
2022-11-29T11:06:28.111Z,92.59
2022-11-29T11:08:57.488Z,92.71
2022-11-29T11:11:33.894Z,92.64
2022-11-29T11:14:02.927Z,92.86
2022-11-29T11:16:34.185Z,92.89
2022-11-29T11:19:33.837Z,92.99
2022-11-29T11:22:02.201Z,92.25
2022-11-29T11:24:36.974Z,93.23
2022-11-29T11:27:03.794Z,93.06
2022-11-29T11:29:44.035Z,93.21
2022-11-29T11:32:18.383Z,93.06
2022-11-29T11:34:56.809Z,92.80
2022-11-29T11:37:26.203Z,93.43
2022-11-29T11:39:57.430Z,92.83
2022-11-29T11:42:37.996Z,92.48
2022-11-29T11:45:05.220Z,92.98
2022-11-29T11:47:35.526Z,91.73
2022-11-29T11:50:04.728Z,92.90
2022-11-29T11:52:39.862Z,92.56
2022-11-29T11:55:21.960Z,93.52
2022-11-29T11:58:04.656Z,93.27
2022-11-29T12:01:16.461Z,93.73
2022-11-29T12:03:39.721Z,92.45
2022-11-29T12:06:06.056Z,94.08
2022-11-29T12:08:34.025Z,94.31
2022-11-29T12:11:07.373Z,94.68
2022-11-29T12:13:39.723Z,93.57
2022-11-29T12:16:15.515Z,93.50
2022-11-29T12:18:51.361Z,93.24
2022-11-29T12:21:26.737Z,93.78
2022-11-29T12:23:52.990Z,94.37
2022-11-29T12:26:58.406Z,93.95
2022-11-29T12:29:27.622Z,94.23
2022-11-29T12:32:15.618Z,93.79
2022-11-29T12:34:45.709Z,94.82
2022-11-29T12:37:48.337Z,94.04
2022-11-29T12:40:28.810Z,94.47
2022-11-29T12:43:46.507Z,93.42
2022-11-29T12:46:16.736Z,94.21
2022-11-29T12:48:57.305Z,94.99
2022-11-29T12:51:48.837Z,93.90
2022-11-29T12:54:39.841Z,92.80
2022-11-29T12:57:38.894Z,93.40
2022-11-29T13:00:14.081Z,92.66
2022-11-29T13:03:02.082Z,92.95
2022-11-29T13:05:43.947Z,93.49
2022-11-29T13:08:22.284Z,92.75
2022-11-29T13:11:19.755Z,93.05
2022-11-29T13:13:51.974Z,92.51
2022-11-29T13:16:37.454Z,93.51
2022-11-29T13:19:33.631Z,93.37
2022-11-29T13:22:02.905Z,93.77
2022-11-29T13:24:42.554Z,93.88
2022-11-29T13:27:25.326Z,93.38
2022-11-29T13:29:52.870Z,94.04
2022-11-29T13:32:31.932Z,93.69
2022-11-29T13:35:21.101Z,94.04
2022-11-29T13:38:26.936Z,94.26
2022-11-29T13:41:11.352Z,94.52
2022-11-29T13:44:19.567Z,94.39
2022-11-29T13:47:05.444Z,94.85
2022-11-29T13:49:53.558Z,94.86
2022-11-29T13:52:43.072Z,94.57
2022-11-29T13:55:31.456Z,93.95
2022-11-29T13:58:19.034Z,93.30
2022-11-29T14:00:45.513Z,93.65
2022-11-29T14:03:24.013Z,94.00
2022-11-29T14:06:03.459Z,94.44
2022-11-29T14:09:16.649Z,94.50
2022-11-29T14:11:36.501Z,94.09
2022-11-29T14:14:05.497Z,94.31
2022-11-29T14:16:32.086Z,94.36
2022-11-29T14:19:11.524Z,94.76
2022-11-29T14:22:17.297Z,94.48
2022-11-29T14:24:56.526Z,94.58
2022-11-29T14:27:23.261Z,94.39
2022-11-29T14:29:49.515Z,95.09
2022-11-29T14:32:25.446Z,94.90
2022-11-29T14:35:11.240Z,94.58
2022-11-29T14:38:00.084Z,94.64
2022-11-29T14:40:41.015Z,95.08
2022-11-29T14:43:32.205Z,95.17
2022-11-29T14:46:27.752Z,94.96
2022-11-29T14:48:57.328Z,94.61
2022-11-29T14:51:28.463Z,94.46
2022-11-29T14:54:19.439Z,94.29
2022-11-29T14:56:47.236Z,94.68
2022-11-29T14:59:45.807Z,95.16
2022-11-29T15:02:32.316Z,94.70
2022-11-29T15:05:20.592Z,93.87
2022-11-29T15:08:13.722Z,94.53
2022-11-29T15:10:44.777Z,94.42
2022-11-29T15:13:15.683Z,94.67
2022-11-29T15:16:13.959Z,94.95
2022-11-29T15:19:12.282Z,94.24
2022-11-29T15:21:54.725Z,93.70
2022-11-29T15:24:28.048Z,93.73
2022-11-29T15:27:00.465Z,94.37
2022-11-29T15:29:28.705Z,95.04
2022-11-29T15:31:57.836Z,95.00
2022-11-29T15:34:40.634Z,95.32
2022-11-29T15:37:12.566Z,94.59
2022-11-29T15:39:40.026Z,94.38
2022-11-29T15:42:14.700Z,95.89
2022-11-29T15:44:48.607Z,94.87
2022-11-29T15:47:27.026Z,94.44
2022-11-29T15:49:54.248Z,95.26
2022-11-29T15:52:36.043Z,95.17
2022-11-29T15:55:10.061Z,95.44
2022-11-29T15:57:46.393Z,95.93
2022-11-29T16:00:20.096Z,94.69
2022-11-29T16:02:56.726Z,94.75
2022-11-29T16:05:26.593Z,95.07
2022-11-29T16:07:57.269Z,95.65
2022-11-29T16:10:43.833Z,94.82
2022-11-29T16:13:25.367Z,95.56
2022-11-29T16:16:21.176Z,95.47
2022-11-29T16:18:49.870Z,95.59
2022-11-29T16:21:30.098Z,96.44
2022-11-29T16:23:57.384Z,96.01
2022-11-29T16:26:32.958Z,95.70
2022-11-29T16:29:00.397Z,95.66
2022-11-29T16:31:35.949Z,95.69
2022-11-29T16:34:34.736Z,95.31
2022-11-29T16:37:06.516Z,96.37
2022-11-29T16:39:38.834Z,95.48
2022-11-29T16:42:28.760Z,95.37
2022-11-29T16:45:02.236Z,95.43
2022-11-29T16:47:30.634Z,94.76
2022-11-29T16:50:03.331Z,95.64
2022-11-29T16:52:34.155Z,95.98
2022-11-29T16:55:00.797Z,95.55
2022-11-29T16:57:29.021Z,95.75
2022-11-29T16:59:55.338Z,95.72
2022-11-29T17:02:21.751Z,96.54
2022-11-29T17:04:48.830Z,96.61
2022-11-29T17:07:22.597Z,96.39
2022-11-29T17:09:50.642Z,96.60
2022-11-29T17:12:17.273Z,96.77
2022-11-29T17:14:43.876Z,97.14
2022-11-29T17:17:18.492Z,96.65
2022-11-29T17:19:45.282Z,96.88
2022-11-29T17:22:12.351Z,96.31
2022-11-29T17:24:43.412Z,95.88
2022-11-29T17:27:12.950Z,95.77
2022-11-29T17:29:39.653Z,96.15
2022-11-29T17:32:06.485Z,96.66
2022-11-29T17:34:33.590Z,95.98
2022-11-29T17:36:59.909Z,96.62
2022-11-29T17:39:26.627Z,96.42
2022-11-29T17:41:52.961Z,96.09
2022-11-29T17:44:19.297Z,96.03
2022-11-29T17:46:46.066Z,95.97
2022-11-29T17:49:12.454Z,96.82
2022-11-29T17:51:51.670Z,96.33
2022-11-29T17:54:18.917Z,96.14
2022-11-29T17:56:45.637Z,96.45
2022-11-29T17:59:12.043Z,96.31
2022-11-29T18:01:38.457Z,96.52
2022-11-29T18:04:07.268Z,96.75
2022-11-29T18:06:38.177Z,97.03
2022-11-29T18:09:07.865Z,96.42
2022-11-29T18:11:47.107Z,97.44
2022-11-29T18:14:18.310Z,97.18
2022-11-29T18:16:45.315Z,97.37
2022-11-29T18:19:14.651Z,97.59
2022-11-29T18:21:41.641Z,98.42
2022-11-29T18:24:08.413Z,98.62
2022-11-29T18:26:36.421Z,98.11
2022-11-29T18:29:04.210Z,97.60
2022-11-29T18:31:33.433Z,97.61
2022-11-29T18:34:02.283Z,97.92
2022-11-29T18:36:34.494Z,97.42
2022-11-29T18:39:03.993Z,97.52
2022-11-29T18:41:31.097Z,96.50
2022-11-29T18:44:06.312Z,95.78
2022-11-29T18:46:35.438Z,96.09
2022-11-29T18:49:03.833Z,96.32
2022-11-29T18:51:31.794Z,96.21
2022-11-29T18:53:58.747Z,96.12
2022-11-29T18:56:28.058Z,96.54
2022-11-29T18:58:58.413Z,96.58
2022-11-29T19:01:27.895Z,97.16
2022-11-29T19:03:57.195Z,97.07
2022-11-29T19:06:39.279Z,96.19
2022-11-29T19:09:10.859Z,95.74
2022-11-29T19:11:37.267Z,96.50
2022-11-29T19:14:07.857Z,96.04
2022-11-29T19:16:34.870Z,95.61
2022-11-29T19:19:01.908Z,96.01
2022-11-29T19:21:35.104Z,95.84
2022-11-29T19:24:04.117Z,95.37
2022-11-29T19:26:31.860Z,95.40
2022-11-29T19:29:00.796Z,95.02
2022-11-29T19:31:28.296Z,94.93
2022-11-29T19:33:55.341Z,95.47
2022-11-29T19:36:27.301Z,95.39
2022-11-29T19:38:54.558Z,94.73
2022-11-29T19:41:27.201Z,94.74
2022-11-29T19:43:56.484Z,94.41
2022-11-29T19:46:25.860Z,95.21
2022-11-29T19:48:54.149Z,94.59
2022-11-29T19:51:21.861Z,95.35
2022-11-29T19:53:51.138Z,94.37
2022-11-29T19:56:17.697Z,95.15
2022-11-29T19:58:45.030Z,95.05
2022-11-29T20:01:14.619Z,95.50
2022-11-29T20:03:41.721Z,95.53
2022-11-29T20:06:10.117Z,95.99
2022-11-29T20:08:37.117Z,96.38
2022-11-29T20:11:14.417Z,96.61
2022-11-29T20:13:42.748Z,96.07
2022-11-29T20:16:15.748Z,96.74
2022-11-29T20:18:50.212Z,96.12
2022-11-29T20:21:20.695Z,96.73
2022-11-29T20:23:47.203Z,96.82
2022-11-29T20:26:18.836Z,96.15
2022-11-29T20:28:47.299Z,95.71
2022-11-29T20:31:16.535Z,95.41
2022-11-29T20:33:44.654Z,95.87
2022-11-29T20:36:36.623Z,95.87
2022-11-29T20:39:05.833Z,95.37
2022-11-29T20:41:58.596Z,95.92
2022-11-29T20:44:38.306Z,96.09
2022-11-29T20:47:16.446Z,95.10
2022-11-29T20:49:43.011Z,95.35
2022-11-29T20:52:31.806Z,95.81
2022-11-29T20:54:58.116Z,95.80
2022-11-29T20:57:24.433Z,95.04
2022-11-29T20:59:51.142Z,95.01
2022-11-29T21:02:17.534Z,95.46
2022-11-29T21:04:44.129Z,95.56
2022-11-29T21:07:11.064Z,95.17
2022-11-29T21:09:37.932Z,95.73
2022-11-29T21:12:04.642Z,95.28
2022-11-29T21:14:31.194Z,95.36
2022-11-29T21:16:58.219Z,95.34
2022-11-29T21:19:25.829Z,94.80
2022-11-29T21:22:14.447Z,95.13
2022-11-29T21:24:40.988Z,95.22
2022-11-29T21:27:12.603Z,94.57
2022-11-29T21:29:39.602Z,95.56
2022-11-29T21:32:06.649Z,95.59
2022-11-29T21:34:33.944Z,95.34
2022-11-29T21:37:00.359Z,95.85
2022-11-29T21:39:33.442Z,95.44
2022-11-29T21:41:59.842Z,95.28
2022-11-29T21:44:26.765Z,95.51
2022-11-29T21:46:53.135Z,95.32
2022-11-29T21:49:22.727Z,95.12
2022-11-29T21:51:49.912Z,94.95
2022-11-29T21:54:16.802Z,95.76
2022-11-29T21:56:48.209Z,95.20
2022-11-29T21:59:16.692Z,95.31
2022-11-29T22:01:47.207Z,94.57
2022-11-29T22:04:13.997Z,95.26
2022-11-29T22:06:42.296Z,95.50
2022-11-29T22:09:09.163Z,95.49
2022-11-29T22:11:42.357Z,95.54
2022-11-29T22:14:14.373Z,95.94
2022-11-29T22:16:45.121Z,95.15
2022-11-29T22:19:12.690Z,95.82
2022-11-29T22:21:44.691Z,95.98
2022-11-29T22:24:12.685Z,96.60
2022-11-29T22:26:39.711Z,96.02
2022-11-29T22:29:06.541Z,96.18
2022-11-29T22:31:35.151Z,95.86
2022-11-29T22:34:01.941Z,96.47
2022-11-29T22:36:28.813Z,96.52
2022-11-29T22:38:55.222Z,96.55
2022-11-29T22:41:22.029Z,96.35
2022-11-29T22:43:48.365Z,96.96
2022-11-29T22:46:20.713Z,97.04
2022-11-29T22:48:51.253Z,97.48
2022-11-29T22:51:30.429Z,97.89
2022-11-29T22:54:00.132Z,97.94
2022-11-29T22:56:29.227Z,98.24
2022-11-29T22:58:55.895Z,98.45
2022-11-29T23:01:24.880Z,98.46
2022-11-29T23:03:56.570Z,97.87
2022-11-29T23:06:28.404Z,98.10
2022-11-29T23:08:57.417Z,98.19
2022-11-29T23:11:29.366Z,97.85
2022-11-29T23:13:55.912Z,97.83
2022-11-29T23:16:25.182Z,98.40
2022-11-29T23:18:53.401Z,98.59
2022-11-29T23:21:28.308Z,98.70
2022-11-29T23:23:56.830Z,98.03
2022-11-29T23:26:33.828Z,98.32
2022-11-29T23:29:00.559Z,98.50
2022-11-29T23:31:26.989Z,98.00
2022-11-29T23:33:53.358Z,97.67
2022-11-29T23:36:20.212Z,97.66
2022-11-29T23:38:46.999Z,97.02
2022-11-29T23:41:13.541Z,96.91
2022-11-29T23:43:41.974Z,97.39
2022-11-29T23:46:12.512Z,97.52
2022-11-29T23:48:38.959Z,98.01
2022-11-29T23:51:05.837Z,98.02
2022-11-29T23:53:32.444Z,98.04
2022-11-29T23:56:00.525Z,98.67
2022-11-29T23:58:28.207Z,98.12
